sensor_id;sensor_type;location;lat;lon;timestamp;temperature;humidity
5705;DHT22;2877;48.238;11.160;2022-11-18T00:00:48;7.30;99.90
5705;DHT22;2877;48.238;11.160;2022-11-18T00:03:14;7.30;99.90
5705;DHT22;2877;48.238;11.160;2022-11-18T00:05:39;7.30;99.90
5705;DHT22;2877;48.238;11.160;2022-11-18T00:08:05;7.30;99.90
5705;DHT22;2877;48.238;11.160;2022-11-18T00:10:31;7.30;99.90
5705;DHT22;2877;48.238;11.160;2022-11-18T00:12:56;7.30;99.90
5705;DHT22;2877;48.238;11.160;2022-11-18T00:15:40;7.30;99.90
5705;DHT22;2877;48.238;11.160;2022-11-18T00:18:06;7.30;99.90
5705;DHT22;2877;48.238;11.160;2022-11-18T00:20:35;7.30;99.90
5705;DHT22;2877;48.238;11.160;2022-11-18T00:23:00;7.30;99.90
5705;DHT22;2877;48.238;11.160;2022-11-18T00:25:26;7.30;99.90
5705;DHT22;2877;48.238;11.160;2022-11-18T00:27:53;7.30;99.90
5705;DHT22;2877;48.238;11.160;2022-11-18T00:30:19;7.30;99.90
5705;DHT22;2877;48.238;11.160;2022-11-18T00:32:44;7.30;99.90
5705;DHT22;2877;48.238;11.160;2022-11-18T00:35:10;7.30;99.90
5705;DHT22;2877;48.238;11.160;2022-11-18T00:37:35;7.30;99.90
5705;DHT22;2877;48.238;11.160;2022-11-18T00:40:01;7.30;99.90
5705;DHT22;2877;48.238;11.160;2022-11-18T00:42:27;7.20;99.90
5705;DHT22;2877;48.238;11.160;2022-11-18T00:45:11;7.30;99.90
5705;DHT22;2877;48.238;11.160;2022-11-18T00:47:36;7.30;99.90
5705;DHT22;2877;48.238;11.160;2022-11-18T00:50:02;7.30;99.90
5705;DHT22;2877;48.238;11.160;2022-11-18T00:52:28;7.30;99.90
5705;DHT22;2877;48.238;11.160;2022-11-18T00:54:54;7.30;99.90
5705;DHT22;2877;48.238;11.160;2022-11-18T00:57:19;7.30;99.90
5705;DHT22;2877;48.238;11.160;2022-11-18T00:59:45;7.30;99.90
5705;DHT22;2877;48.238;11.160;2022-11-18T01:02:10;7.30;99.90
5705;DHT22;2877;48.238;11.160;2022-11-18T01:04:36;7.20;99.90
5705;DHT22;2877;48.238;11.160;2022-11-18T01:07:01;7.20;99.90
5705;DHT22;2877;48.238;11.160;2022-11-18T01:09:27;7.20;99.90
5705;DHT22;2877;48.238;11.160;2022-11-18T01:11:52;7.20;99.90
5705;DHT22;2877;48.238;11.160;2022-11-18T01:14:37;7.20;99.90
5705;DHT22;2877;48.238;11.160;2022-11-18T01:17:02;7.10;99.90
5705;DHT22;2877;48.238;11.160;2022-11-18T01:19:28;7.10;99.90
5705;DHT22;2877;48.238;11.160;2022-11-18T01:21:53;7.10;99.90
5705;DHT22;2877;48.238;11.160;2022-11-18T01:24:21;7.10;99.90
5705;DHT22;2877;48.238;11.160;2022-11-18T01:26:46;7.10;99.90
5705;DHT22;2877;48.238;11.160;2022-11-18T01:29:12;7.00;99.90
5705;DHT22;2877;48.238;11.160;2022-11-18T01:31:38;7.00;99.90
5705;DHT22;2877;48.238;11.160;2022-11-18T01:34:04;7.00;99.90
5705;DHT22;2877;48.238;11.160;2022-11-18T01:36:30;7.00;99.90
5705;DHT22;2877;48.238;11.160;2022-11-18T01:38:55;7.00;99.90
5705;DHT22;2877;48.238;11.160;2022-11-18T01:41:24;7.00;99.90
5705;DHT22;2877;48.238;11.160;2022-11-18T01:44:03;7.00;99.90
5705;DHT22;2877;48.238;11.160;2022-11-18T01:46:33;7.00;99.90
5705;DHT22;2877;48.238;11.160;2022-11-18T01:49:03;7.00;99.90
5705;DHT22;2877;48.238;11.160;2022-11-18T01:51:55;7.00;99.90
5705;DHT22;2877;48.238;11.160;2022-11-18T01:54:33;7.00;99.90
5705;DHT22;2877;48.238;11.160;2022-11-18T01:57:03;7.00;99.90
5705;DHT22;2877;48.238;11.160;2022-11-18T01:59:32;7.00;99.90
5705;DHT22;2877;48.238;11.160;2022-11-18T02:02:00;7.00;99.90
5705;DHT22;2877;48.238;11.160;2022-11-18T02:04:27;7.00;99.90
5705;DHT22;2877;48.238;11.160;2022-11-18T02:06:53;7.00;99.90
5705;DHT22;2877;48.238;11.160;2022-11-18T02:09:19;7.00;99.90
5705;DHT22;2877;48.238;11.160;2022-11-18T02:11:46;7.00;99.90
5705;DHT22;2877;48.238;11.160;2022-11-18T02:14:16;7.00;99.90
5705;DHT22;2877;48.238;11.160;2022-11-18T02:20:01;7.10;99.90
5705;DHT22;2877;48.238;11.160;2022-11-18T02:28:12;7.20;99.90
5705;DHT22;2877;48.238;11.160;2022-11-18T02:30:54;7.10;99.90
5705;DHT22;2877;48.238;11.160;2022-11-18T02:33:30;7.20;99.90
5705;DHT22;2877;48.238;11.160;2022-11-18T02:36:09;7.20;99.90
5705;DHT22;2877;48.238;11.160;2022-11-18T02:38:45;7.10;99.90
5705;DHT22;2877;48.238;11.160;2022-11-18T02:41:16;7.20;99.90
5705;DHT22;2877;48.238;11.160;2022-11-18T02:43:46;7.20;99.90
5705;DHT22;2877;48.238;11.160;2022-11-18T02:46:20;7.10;99.90
5705;DHT22;2877;48.238;11.160;2022-11-18T02:48:49;7.20;99.90
5705;DHT22;2877;48.238;11.160;2022-11-18T02:51:23;7.10;99.90
5705;DHT22;2877;48.238;11.160;2022-11-18T02:53:50;7.20;99.90
5705;DHT22;2877;48.238;11.160;2022-11-18T02:56:17;7.20;99.90
5705;DHT22;2877;48.238;11.160;2022-11-18T02:58:43;7.10;99.90
5705;DHT22;2877;48.238;11.160;2022-11-18T03:01:27;7.10;99.90
5705;DHT22;2877;48.238;11.160;2022-11-18T03:03:53;7.10;99.90
5705;DHT22;2877;48.238;11.160;2022-11-18T03:06:35;7.00;99.90
5705;DHT22;2877;48.238;11.160;2022-11-18T03:09:11;7.10;99.90
5705;DHT22;2877;48.238;11.160;2022-11-18T03:20:32;7.10;99.90
5705;DHT22;2877;48.238;11.160;2022-11-18T03:28:35;7.10;99.90
5705;DHT22;2877;48.238;11.160;2022-11-18T03:31:39;7.10;99.90
5705;DHT22;2877;48.238;11.160;2022-11-18T03:34:12;7.10;99.90
5705;DHT22;2877;48.238;11.160;2022-11-18T03:36:45;7.10;99.90
5705;DHT22;2877;48.238;11.160;2022-11-18T03:39:12;7.10;99.90
5705;DHT22;2877;48.238;11.160;2022-11-18T03:41:44;7.10;99.90
5705;DHT22;2877;48.238;11.160;2022-11-18T03:44:15;7.10;99.90
5705;DHT22;2877;48.238;11.160;2022-11-18T03:46:44;7.10;99.90
5705;DHT22;2877;48.238;11.160;2022-11-18T03:49:42;7.10;99.90
5705;DHT22;2877;48.238;11.160;2022-11-18T03:52:14;7.10;99.90
5705;DHT22;2877;48.238;11.160;2022-11-18T03:54:44;7.10;99.90
5705;DHT22;2877;48.238;11.160;2022-11-18T04:00:10;7.10;99.90
5705;DHT22;2877;48.238;11.160;2022-11-18T04:02:37;7.10;99.90
5705;DHT22;2877;48.238;11.160;2022-11-18T04:05:05;7.10;99.90
5705;DHT22;2877;48.238;11.160;2022-11-18T04:10:12;7.10;99.90
5705;DHT22;2877;48.238;11.160;2022-11-18T04:12:53;7.20;99.90
5705;DHT22;2877;48.238;11.160;2022-11-18T04:15:21;7.20;99.90
5705;DHT22;2877;48.238;11.160;2022-11-18T04:17:46;7.10;99.90
5705;DHT22;2877;48.238;11.160;2022-11-18T04:20:18;7.20;99.90
5705;DHT22;2877;48.238;11.160;2022-11-18T04:22:44;7.20;99.90
5705;DHT22;2877;48.238;11.160;2022-11-18T04:25:10;7.20;99.90
5705;DHT22;2877;48.238;11.160;2022-11-18T04:27:36;7.20;99.90
5705;DHT22;2877;48.238;11.160;2022-11-18T04:30:02;7.10;99.90
5705;DHT22;2877;48.238;11.160;2022-11-18T04:32:28;7.20;99.90
5705;DHT22;2877;48.238;11.160;2022-11-18T04:34:54;7.20;99.90
5705;DHT22;2877;48.238;11.160;2022-11-18T04:37:19;7.20;99.90
5705;DHT22;2877;48.238;11.160;2022-11-18T04:39:45;7.20;99.90
5705;DHT22;2877;48.238;11.160;2022-11-18T04:42:11;7.10;99.90
5705;DHT22;2877;48.238;11.160;2022-11-18T04:44:36;7.10;99.90
5705;DHT22;2877;48.238;11.160;2022-11-18T04:47:04;7.10;99.90
5705;DHT22;2877;48.238;11.160;2022-11-18T04:49:30;7.20;99.90
5705;DHT22;2877;48.238;11.160;2022-11-18T04:51:56;7.20;99.90
5705;DHT22;2877;48.238;11.160;2022-11-18T04:54:23;7.20;99.90
5705;DHT22;2877;48.238;11.160;2022-11-18T04:56:49;7.20;99.90
5705;DHT22;2877;48.238;11.160;2022-11-18T04:59:17;7.20;99.90
5705;DHT22;2877;48.238;11.160;2022-11-18T05:01:43;7.20;99.90
5705;DHT22;2877;48.238;11.160;2022-11-18T05:04:12;7.20;99.90
5705;DHT22;2877;48.238;11.160;2022-11-18T05:06:38;7.20;99.90
5705;DHT22;2877;48.238;11.160;2022-11-18T05:09:04;7.20;99.90
5705;DHT22;2877;48.238;11.160;2022-11-18T05:11:31;7.10;99.90
5705;DHT22;2877;48.238;11.160;2022-11-18T05:14:15;7.10;99.90
5705;DHT22;2877;48.238;11.160;2022-11-18T05:16:40;7.10;99.90
5705;DHT22;2877;48.238;11.160;2022-11-18T05:19:06;7.10;99.90
5705;DHT22;2877;48.238;11.160;2022-11-18T05:21:32;7.00;99.90
5705;DHT22;2877;48.238;11.160;2022-11-18T05:23:58;6.90;99.90
5705;DHT22;2877;48.238;11.160;2022-11-18T05:26:24;6.90;99.90
5705;DHT22;2877;48.238;11.160;2022-11-18T05:28:50;6.90;99.90
5705;DHT22;2877;48.238;11.160;2022-11-18T05:31:16;6.90;99.90
5705;DHT22;2877;48.238;11.160;2022-11-18T05:33:42;7.00;99.90
5705;DHT22;2877;48.238;11.160;2022-11-18T05:36:14;7.00;99.90
5705;DHT22;2877;48.238;11.160;2022-11-18T05:38:40;7.00;99.90
5705;DHT22;2877;48.238;11.160;2022-11-18T05:41:06;7.10;99.90
5705;DHT22;2877;48.238;11.160;2022-11-18T05:43:33;7.10;99.90
5705;DHT22;2877;48.238;11.160;2022-11-18T05:45:59;7.10;99.90
5705;DHT22;2877;48.238;11.160;2022-11-18T05:48:25;7.10;99.90
5705;DHT22;2877;48.238;11.160;2022-11-18T05:50:52;7.10;99.90
5705;DHT22;2877;48.238;11.160;2022-11-18T05:53:20;7.10;99.90
5705;DHT22;2877;48.238;11.160;2022-11-18T05:56:07;7.10;99.90
5705;DHT22;2877;48.238;11.160;2022-11-18T05:58:38;7.20;99.90
5705;DHT22;2877;48.238;11.160;2022-11-18T06:01:06;7.20;99.90
5705;DHT22;2877;48.238;11.160;2022-11-18T06:03:36;7.20;99.90
5705;DHT22;2877;48.238;11.160;2022-11-18T06:06:05;7.30;99.90
5705;DHT22;2877;48.238;11.160;2022-11-18T06:08:38;7.30;99.90
5705;DHT22;2877;48.238;11.160;2022-11-18T06:11:06;7.20;99.90
5705;DHT22;2877;48.238;11.160;2022-11-18T06:13:40;7.20;99.90
5705;DHT22;2877;48.238;11.160;2022-11-18T06:16:07;7.20;99.90
5705;DHT22;2877;48.238;11.160;2022-11-18T06:18:33;7.20;99.90
5705;DHT22;2877;48.238;11.160;2022-11-18T06:21:02;7.10;99.90
5705;DHT22;2877;48.238;11.160;2022-11-18T06:23:31;7.00;99.90
5705;DHT22;2877;48.238;11.160;2022-11-18T06:25:58;7.00;99.90
5705;DHT22;2877;48.238;11.160;2022-11-18T06:28:25;6.90;99.90
5705;DHT22;2877;48.238;11.160;2022-11-18T06:30:51;6.90;99.90
5705;DHT22;2877;48.238;11.160;2022-11-18T06:33:17;6.80;99.90
5705;DHT22;2877;48.238;11.160;2022-11-18T06:35:42;6.80;99.90
5705;DHT22;2877;48.238;11.160;2022-11-18T06:38:08;6.80;99.90
5705;DHT22;2877;48.238;11.160;2022-11-18T06:40:33;6.80;99.90
5705;DHT22;2877;48.238;11.160;2022-11-18T06:43:05;6.80;99.90
5705;DHT22;2877;48.238;11.160;2022-11-18T06:45:50;6.80;99.90
5705;DHT22;2877;48.238;11.160;2022-11-18T06:48:34;6.80;99.90
5705;DHT22;2877;48.238;11.160;2022-11-18T06:50:59;6.80;99.90
5705;DHT22;2877;48.238;11.160;2022-11-18T06:53:25;6.90;99.90
5705;DHT22;2877;48.238;11.160;2022-11-18T06:55:50;6.80;99.90
5705;DHT22;2877;48.238;11.160;2022-11-18T06:58:16;6.80;99.90
5705;DHT22;2877;48.238;11.160;2022-11-18T07:00:41;6.70;99.90
5705;DHT22;2877;48.238;11.160;2022-11-18T07:03:07;6.70;99.90
5705;DHT22;2877;48.238;11.160;2022-11-18T07:05:32;6.60;99.90
5705;DHT22;2877;48.238;11.160;2022-11-18T07:07:58;6.60;99.90
5705;DHT22;2877;48.238;11.160;2022-11-18T07:10:23;6.60;99.90
5705;DHT22;2877;48.238;11.160;2022-11-18T07:12:49;6.60;99.90
5705;DHT22;2877;48.238;11.160;2022-11-18T07:15:14;6.60;99.90
5705;DHT22;2877;48.238;11.160;2022-11-18T07:17:40;6.60;99.90
5705;DHT22;2877;48.238;11.160;2022-11-18T07:20:06;6.60;99.90
5705;DHT22;2877;48.238;11.160;2022-11-18T07:22:32;6.60;99.90
5705;DHT22;2877;48.238;11.160;2022-11-18T07:24:57;6.60;99.90
5705;DHT22;2877;48.238;11.160;2022-11-18T07:27:23;6.60;99.90
5705;DHT22;2877;48.238;11.160;2022-11-18T07:29:48;6.60;99.90
5705;DHT22;2877;48.238;11.160;2022-11-18T07:32:14;6.60;99.90
5705;DHT22;2877;48.238;11.160;2022-11-18T07:34:39;6.60;99.90
5705;DHT22;2877;48.238;11.160;2022-11-18T07:37:05;6.60;99.90
5705;DHT22;2877;48.238;11.160;2022-11-18T07:39:30;6.60;99.90
5705;DHT22;2877;48.238;11.160;2022-11-18T07:41:56;6.60;99.90
5705;DHT22;2877;48.238;11.160;2022-11-18T07:44:22;6.60;99.90
5705;DHT22;2877;48.238;11.160;2022-11-18T07:46:47;6.50;99.90
5705;DHT22;2877;48.238;11.160;2022-11-18T07:49:13;6.50;99.90
5705;DHT22;2877;48.238;11.160;2022-11-18T07:51:39;6.50;99.90
5705;DHT22;2877;48.238;11.160;2022-11-18T07:54:13;6.50;99.90
5705;DHT22;2877;48.238;11.160;2022-11-18T07:56:41;6.50;99.90
5705;DHT22;2877;48.238;11.160;2022-11-18T07:59:07;6.50;99.90
5705;DHT22;2877;48.238;11.160;2022-11-18T08:01:32;6.60;99.90
5705;DHT22;2877;48.238;11.160;2022-11-18T08:04:06;6.50;99.90
5705;DHT22;2877;48.238;11.160;2022-11-18T08:06:33;6.60;99.90
5705;DHT22;2877;48.238;11.160;2022-11-18T08:08:59;6.60;99.90
5705;DHT22;2877;48.238;11.160;2022-11-18T08:11:25;6.60;99.90
5705;DHT22;2877;48.238;11.160;2022-11-18T08:13:51;6.60;99.90
5705;DHT22;2877;48.238;11.160;2022-11-18T08:16:19;6.60;99.90
5705;DHT22;2877;48.238;11.160;2022-11-18T08:18:45;6.60;99.90
5705;DHT22;2877;48.238;11.160;2022-11-18T08:21:12;6.60;99.90
5705;DHT22;2877;48.238;11.160;2022-11-18T08:23:38;6.60;99.90
5705;DHT22;2877;48.238;11.160;2022-11-18T08:26:09;6.60;99.90
5705;DHT22;2877;48.238;11.160;2022-11-18T08:28:36;6.60;99.90
5705;DHT22;2877;48.238;11.160;2022-11-18T08:31:12;6.60;99.90
5705;DHT22;2877;48.238;11.160;2022-11-18T08:33:38;6.70;99.90
5705;DHT22;2877;48.238;11.160;2022-11-18T08:36:10;6.70;99.90
5705;DHT22;2877;48.238;11.160;2022-11-18T08:38:36;6.70;99.90
5705;DHT22;2877;48.238;11.160;2022-11-18T08:41:02;6.60;99.90
5705;DHT22;2877;48.238;11.160;2022-11-18T08:43:29;6.50;99.90
5705;DHT22;2877;48.238;11.160;2022-11-18T08:45:55;6.50;99.90
5705;DHT22;2877;48.238;11.160;2022-11-18T08:48:20;6.50;99.90
5705;DHT22;2877;48.238;11.160;2022-11-18T08:50:46;6.40;99.90
5705;DHT22;2877;48.238;11.160;2022-11-18T08:53:11;6.40;99.90
5705;DHT22;2877;48.238;11.160;2022-11-18T08:55:37;6.40;99.90
5705;DHT22;2877;48.238;11.160;2022-11-18T08:58:02;6.30;99.90
5705;DHT22;2877;48.238;11.160;2022-11-18T09:00:28;6.30;99.90
5705;DHT22;2877;48.238;11.160;2022-11-18T09:02:53;6.20;99.90
5705;DHT22;2877;48.238;11.160;2022-11-18T09:05:19;6.20;99.90
5705;DHT22;2877;48.238;11.160;2022-11-18T09:07:45;6.10;99.90
5705;DHT22;2877;48.238;11.160;2022-11-18T09:10:10;6.10;99.90
5705;DHT22;2877;48.238;11.160;2022-11-18T09:12:36;6.10;99.90
5705;DHT22;2877;48.238;11.160;2022-11-18T09:15:01;6.10;99.90
5705;DHT22;2877;48.238;11.160;2022-11-18T09:17:27;6.10;99.90
5705;DHT22;2877;48.238;11.160;2022-11-18T09:19:52;6.10;99.90
5705;DHT22;2877;48.238;11.160;2022-11-18T09:22:18;6.10;99.90
5705;DHT22;2877;48.238;11.160;2022-11-18T09:24:43;6.10;99.90
5705;DHT22;2877;48.238;11.160;2022-11-18T09:27:09;6.10;99.90
5705;DHT22;2877;48.238;11.160;2022-11-18T09:29:35;6.10;99.90
5705;DHT22;2877;48.238;11.160;2022-11-18T09:32:01;6.10;99.90
5705;DHT22;2877;48.238;11.160;2022-11-18T09:34:27;6.20;99.90
5705;DHT22;2877;48.238;11.160;2022-11-18T09:36:53;6.20;99.90
5705;DHT22;2877;48.238;11.160;2022-11-18T09:39:22;6.20;99.90
5705;DHT22;2877;48.238;11.160;2022-11-18T09:42:05;6.30;99.90
5705;DHT22;2877;48.238;11.160;2022-11-18T09:47:32;6.30;99.90
5705;DHT22;2877;48.238;11.160;2022-11-18T09:50:01;6.30;99.90
5705;DHT22;2877;48.238;11.160;2022-11-18T09:52:36;6.30;99.90
5705;DHT22;2877;48.238;11.160;2022-11-18T09:55:11;6.20;99.90
5705;DHT22;2877;48.238;11.160;2022-11-18T09:57:59;6.20;99.90
5705;DHT22;2877;48.238;11.160;2022-11-18T10:00:26;6.20;99.90
5705;DHT22;2877;48.238;11.160;2022-11-18T10:03:02;6.20;99.90
5705;DHT22;2877;48.238;11.160;2022-11-18T10:08:24;6.20;99.90
5705;DHT22;2877;48.238;11.160;2022-11-18T10:13:42;6.20;99.90
5705;DHT22;2877;48.238;11.160;2022-11-18T10:16:38;6.20;99.90
5705;DHT22;2877;48.238;11.160;2022-11-18T10:19:19;6.20;99.90
5705;DHT22;2877;48.238;11.160;2022-11-18T10:24:53;6.20;99.90
5705;DHT22;2877;48.238;11.160;2022-11-18T10:27:19;6.20;99.90
5705;DHT22;2877;48.238;11.160;2022-11-18T10:29:50;6.20;99.90
5705;DHT22;2877;48.238;11.160;2022-11-18T10:32:17;6.20;99.90
5705;DHT22;2877;48.238;11.160;2022-11-18T10:34:55;6.30;99.90
5705;DHT22;2877;48.238;11.160;2022-11-18T10:39:55;6.40;99.90
5705;DHT22;2877;48.238;11.160;2022-11-18T10:42:33;6.60;99.90
5705;DHT22;2877;48.238;11.160;2022-11-18T10:48:08;6.90;99.90
5705;DHT22;2877;48.238;11.160;2022-11-18T10:53:34;7.30;99.90
5705;DHT22;2877;48.238;11.160;2022-11-18T10:56:03;7.20;99.90
5705;DHT22;2877;48.238;11.160;2022-11-18T10:58:30;7.20;99.90
5705;DHT22;2877;48.238;11.160;2022-11-18T11:08:53;7.00;99.90
5705;DHT22;2877;48.238;11.160;2022-11-18T11:11:34;6.90;99.90
5705;DHT22;2877;48.238;11.160;2022-11-18T11:20:01;6.60;99.90
5705;DHT22;2877;48.238;11.160;2022-11-18T11:22:27;6.60;99.90
5705;DHT22;2877;48.238;11.160;2022-11-18T11:24:54;6.50;99.90
5705;DHT22;2877;48.238;11.160;2022-11-18T11:30:07;6.60;99.90
5705;DHT22;2877;48.238;11.160;2022-11-18T11:33:25;6.50;99.90
5705;DHT22;2877;48.238;11.160;2022-11-18T11:35:49;6.50;99.90
5705;DHT22;2877;48.238;11.160;2022-11-18T11:41:29;6.60;99.90
5705;DHT22;2877;48.238;11.160;2022-11-18T11:49:53;6.60;99.90
5705;DHT22;2877;48.238;11.160;2022-11-18T11:53:01;6.60;99.90
5705;DHT22;2877;48.238;11.160;2022-11-18T12:01:24;6.60;99.90
5705;DHT22;2877;48.238;11.160;2022-11-18T12:04:03;6.60;99.90
5705;DHT22;2877;48.238;11.160;2022-11-18T12:06:33;6.50;99.90
5705;DHT22;2877;48.238;11.160;2022-11-18T12:09:13;6.50;99.90
5705;DHT22;2877;48.238;11.160;2022-11-18T12:11:57;6.50;99.90
5705;DHT22;2877;48.238;11.160;2022-11-18T12:14:42;6.50;99.90
5705;DHT22;2877;48.238;11.160;2022-11-18T12:17:23;6.50;99.90
5705;DHT22;2877;48.238;11.160;2022-11-18T12:19:51;6.50;99.90
5705;DHT22;2877;48.238;11.160;2022-11-18T12:22:17;6.50;99.90
5705;DHT22;2877;48.238;11.160;2022-11-18T12:24:42;6.40;99.90
5705;DHT22;2877;48.238;11.160;2022-11-18T12:29:53;6.40;99.90
5705;DHT22;2877;48.238;11.160;2022-11-18T12:32:41;6.40;99.90
5705;DHT22;2877;48.238;11.160;2022-11-18T12:40:37;6.40;99.90
5705;DHT22;2877;48.238;11.160;2022-11-18T12:43:08;6.40;99.90
5705;DHT22;2877;48.238;11.160;2022-11-18T12:45:55;6.40;99.90
5705;DHT22;2877;48.238;11.160;2022-11-18T12:48:40;6.40;99.90
5705;DHT22;2877;48.238;11.160;2022-11-18T12:53:43;6.40;99.90
5705;DHT22;2877;48.238;11.160;2022-11-18T12:56:22;6.40;99.90
5705;DHT22;2877;48.238;11.160;2022-11-18T12:58:58;6.40;99.90
5705;DHT22;2877;48.238;11.160;2022-11-18T13:01:33;6.40;99.90
5705;DHT22;2877;48.238;11.160;2022-11-18T13:04:17;6.30;99.90
5705;DHT22;2877;48.238;11.160;2022-11-18T13:06:44;6.40;99.90
5705;DHT22;2877;48.238;11.160;2022-11-18T13:09:16;6.40;99.90
5705;DHT22;2877;48.238;11.160;2022-11-18T13:12:02;6.30;99.90
5705;DHT22;2877;48.238;11.160;2022-11-18T13:14:32;6.30;99.90
5705;DHT22;2877;48.238;11.160;2022-11-18T13:17:36;6.30;99.90
5705;DHT22;2877;48.238;11.160;2022-11-18T13:20:30;6.30;99.90
5705;DHT22;2877;48.238;11.160;2022-11-18T13:22:59;6.30;99.90
5705;DHT22;2877;48.238;11.160;2022-11-18T13:25:45;6.30;99.90
5705;DHT22;2877;48.238;11.160;2022-11-18T13:31:14;6.30;99.90
5705;DHT22;2877;48.238;11.160;2022-11-18T13:33:41;6.30;99.90
5705;DHT22;2877;48.238;11.160;2022-11-18T13:36:18;6.30;99.90
5705;DHT22;2877;48.238;11.160;2022-11-18T13:39:02;6.30;99.90
5705;DHT22;2877;48.238;11.160;2022-11-18T13:41:29;6.30;99.90
5705;DHT22;2877;48.238;11.160;2022-11-18T13:46:38;6.30;99.90
5705;DHT22;2877;48.238;11.160;2022-11-18T13:49:04;6.30;99.90
5705;DHT22;2877;48.238;11.160;2022-11-18T13:51:30;6.30;99.90
5705;DHT22;2877;48.238;11.160;2022-11-18T13:53:56;6.30;99.90
5705;DHT22;2877;48.238;11.160;2022-11-18T13:56:26;6.30;99.90
5705;DHT22;2877;48.238;11.160;2022-11-18T13:58:55;6.30;99.90
5705;DHT22;2877;48.238;11.160;2022-11-18T14:01:26;6.30;99.90
5705;DHT22;2877;48.238;11.160;2022-11-18T14:03:58;6.30;99.90
5705;DHT22;2877;48.238;11.160;2022-11-18T14:09:24;6.30;99.90
5705;DHT22;2877;48.238;11.160;2022-11-18T14:14:34;6.40;99.90
5705;DHT22;2877;48.238;11.160;2022-11-18T14:17:25;6.40;99.90
5705;DHT22;2877;48.238;11.160;2022-11-18T14:19:58;6.40;99.90
5705;DHT22;2877;48.238;11.160;2022-11-18T14:22:26;6.40;99.90
5705;DHT22;2877;48.238;11.160;2022-11-18T14:27:35;6.40;99.90
5705;DHT22;2877;48.238;11.160;2022-11-18T14:30:34;6.30;99.90
5705;DHT22;2877;48.238;11.160;2022-11-18T14:35:39;6.20;99.90
5705;DHT22;2877;48.238;11.160;2022-11-18T14:38:18;6.20;99.90
5705;DHT22;2877;48.238;11.160;2022-11-18T14:40:44;6.20;99.90
5705;DHT22;2877;48.238;11.160;2022-11-18T14:43:13;6.20;99.90
5705;DHT22;2877;48.238;11.160;2022-11-18T14:45:39;6.20;99.90
5705;DHT22;2877;48.238;11.160;2022-11-18T14:48:06;6.20;99.90
5705;DHT22;2877;48.238;11.160;2022-11-18T14:50:33;6.20;99.90
5705;DHT22;2877;48.238;11.160;2022-11-18T14:52:58;6.10;99.90
5705;DHT22;2877;48.238;11.160;2022-11-18T14:55:24;6.10;99.90
5705;DHT22;2877;48.238;11.160;2022-11-18T14:57:49;6.10;99.90
5705;DHT22;2877;48.238;11.160;2022-11-18T15:00:16;6.10;99.90
5705;DHT22;2877;48.238;11.160;2022-11-18T15:02:41;6.10;99.90
5705;DHT22;2877;48.238;11.160;2022-11-18T15:05:07;6.10;99.90
5705;DHT22;2877;48.238;11.160;2022-11-18T15:07:33;6.10;99.90
5705;DHT22;2877;48.238;11.160;2022-11-18T15:09:58;6.10;99.90
5705;DHT22;2877;48.238;11.160;2022-11-18T15:12:24;6.10;99.90
5705;DHT22;2877;48.238;11.160;2022-11-18T15:14:49;6.10;99.90
5705;DHT22;2877;48.238;11.160;2022-11-18T15:17:15;6.10;99.90
5705;DHT22;2877;48.238;11.160;2022-11-18T15:19:40;6.10;99.90
5705;DHT22;2877;48.238;11.160;2022-11-18T15:22:07;6.10;99.90
5705;DHT22;2877;48.238;11.160;2022-11-18T15:24:32;6.10;99.90
5705;DHT22;2877;48.238;11.160;2022-11-18T15:26:58;6.10;99.90
5705;DHT22;2877;48.238;11.160;2022-11-18T15:29:24;6.10;99.90
5705;DHT22;2877;48.238;11.160;2022-11-18T15:31:50;6.10;99.90
5705;DHT22;2877;48.238;11.160;2022-11-18T15:34:17;6.10;99.90
5705;DHT22;2877;48.238;11.160;2022-11-18T15:36:44;6.10;99.90
5705;DHT22;2877;48.238;11.160;2022-11-18T15:39:10;6.10;99.90
5705;DHT22;2877;48.238;11.160;2022-11-18T15:41:38;6.10;99.90
5705;DHT22;2877;48.238;11.160;2022-11-18T15:44:04;6.20;99.90
5705;DHT22;2877;48.238;11.160;2022-11-18T15:46:30;6.20;99.90
5705;DHT22;2877;48.238;11.160;2022-11-18T15:48:58;6.30;99.90
5705;DHT22;2877;48.238;11.160;2022-11-18T15:51:25;6.30;99.90
5705;DHT22;2877;48.238;11.160;2022-11-18T15:53:51;6.30;99.90
5705;DHT22;2877;48.238;11.160;2022-11-18T15:58:55;6.40;99.90
5705;DHT22;2877;48.238;11.160;2022-11-18T16:01:22;6.40;99.90
5705;DHT22;2877;48.238;11.160;2022-11-18T16:03:49;6.40;99.90
5705;DHT22;2877;48.238;11.160;2022-11-18T16:06:15;6.40;99.90
5705;DHT22;2877;48.238;11.160;2022-11-18T16:08:40;6.40;99.90
5705;DHT22;2877;48.238;11.160;2022-11-18T16:11:08;6.30;99.90
5705;DHT22;2877;48.238;11.160;2022-11-18T16:13:52;6.30;99.90
5705;DHT22;2877;48.238;11.160;2022-11-18T16:16:22;6.20;99.90
5705;DHT22;2877;48.238;11.160;2022-11-18T16:18:56;6.20;99.90
5705;DHT22;2877;48.238;11.160;2022-11-18T16:21:22;6.10;99.90
5705;DHT22;2877;48.238;11.160;2022-11-18T16:23:48;6.10;99.90
5705;DHT22;2877;48.238;11.160;2022-11-18T16:26:14;6.10;99.90
5705;DHT22;2877;48.238;11.160;2022-11-18T16:28:39;6.00;99.90
5705;DHT22;2877;48.238;11.160;2022-11-18T16:31:05;6.10;99.90
5705;DHT22;2877;48.238;11.160;2022-11-18T16:33:50;6.10;99.90
5705;DHT22;2877;48.238;11.160;2022-11-18T16:36:15;6.00;99.90
5705;DHT22;2877;48.238;11.160;2022-11-18T16:38:41;6.00;99.90
5705;DHT22;2877;48.238;11.160;2022-11-18T16:41:07;6.00;99.90
5705;DHT22;2877;48.238;11.160;2022-11-18T16:43:52;6.00;99.90
5705;DHT22;2877;48.238;11.160;2022-11-18T16:46:17;6.00;99.90
5705;DHT22;2877;48.238;11.160;2022-11-18T16:48:43;6.00;99.90
5705;DHT22;2877;48.238;11.160;2022-11-18T16:51:28;6.00;99.90
5705;DHT22;2877;48.238;11.160;2022-11-18T16:53:56;6.10;99.90
5705;DHT22;2877;48.238;11.160;2022-11-18T16:56:24;6.10;99.90
5705;DHT22;2877;48.238;11.160;2022-11-18T16:58:58;6.10;99.90
5705;DHT22;2877;48.238;11.160;2022-11-18T17:01:24;6.10;99.90
5705;DHT22;2877;48.238;11.160;2022-11-18T17:03:54;6.10;99.90
5705;DHT22;2877;48.238;11.160;2022-11-18T17:06:21;6.10;99.90
5705;DHT22;2877;48.238;11.160;2022-11-18T17:08:47;6.10;99.90
5705;DHT22;2877;48.238;11.160;2022-11-18T17:11:13;6.10;99.90
5705;DHT22;2877;48.238;11.160;2022-11-18T17:13:40;6.10;99.90
5705;DHT22;2877;48.238;11.160;2022-11-18T17:16:14;6.10;99.90
5705;DHT22;2877;48.238;11.160;2022-11-18T17:18:41;6.10;99.90
5705;DHT22;2877;48.238;11.160;2022-11-18T17:21:13;6.10;99.90
5705;DHT22;2877;48.238;11.160;2022-11-18T17:23:39;6.10;99.90
5705;DHT22;2877;48.238;11.160;2022-11-18T17:26:06;6.10;99.90
5705;DHT22;2877;48.238;11.160;2022-11-18T17:28:33;6.10;99.90
5705;DHT22;2877;48.238;11.160;2022-11-18T17:31:11;6.10;99.90
5705;DHT22;2877;48.238;11.160;2022-11-18T17:33:37;6.10;99.90
5705;DHT22;2877;48.238;11.160;2022-11-18T17:36:11;6.10;99.90
5705;DHT22;2877;48.238;11.160;2022-11-18T17:38:39;6.00;99.90
5705;DHT22;2877;48.238;11.160;2022-11-18T17:41:06;6.00;99.90
5705;DHT22;2877;48.238;11.160;2022-11-18T17:43:32;6.00;99.90
5705;DHT22;2877;48.238;11.160;2022-11-18T17:45:59;6.00;99.90
5705;DHT22;2877;48.238;11.160;2022-11-18T17:48:26;6.00;99.90
5705;DHT22;2877;48.238;11.160;2022-11-18T17:50:52;6.10;99.90
5705;DHT22;2877;48.238;11.160;2022-11-18T17:53:18;6.10;99.90
5705;DHT22;2877;48.238;11.160;2022-11-18T17:55:44;6.10;99.90
5705;DHT22;2877;48.238;11.160;2022-11-18T17:58:11;6.10;99.90
5705;DHT22;2877;48.238;11.160;2022-11-18T18:00:37;6.00;99.90
5705;DHT22;2877;48.238;11.160;2022-11-18T18:03:04;5.90;99.90
5705;DHT22;2877;48.238;11.160;2022-11-18T18:05:30;5.90;99.90
5705;DHT22;2877;48.238;11.160;2022-11-18T18:07:56;5.80;99.90